createdAt,value
2022-10-13T00:00:42.278Z,15.43
2022-10-13T00:03:09.013Z,15.60
2022-10-13T00:05:35.576Z,14.80
2022-10-13T00:08:02.037Z,13.90
2022-10-13T00:10:28.602Z,15.17
2022-10-13T00:12:55.144Z,14.70
2022-10-13T00:15:21.708Z,13.43
2022-10-13T00:17:48.261Z,14.20
2022-10-13T00:20:14.762Z,13.67
2022-10-13T00:22:41.193Z,13.97
2022-10-13T00:25:07.890Z,14.40
2022-10-13T00:27:34.489Z,16.73
2022-10-13T00:30:00.935Z,16.53
2022-10-13T00:32:27.438Z,14.70
2022-10-13T00:34:54.034Z,14.43
2022-10-13T00:37:20.431Z,15.47
2022-10-13T00:39:47.402Z,14.70
2022-10-13T00:42:14.200Z,15.00
2022-10-13T00:45:00.600Z,15.90
2022-10-13T00:47:29.070Z,15.33
2022-10-13T00:49:56.015Z,15.23
2022-10-13T00:52:23.655Z,14.80
2022-10-13T00:54:50.745Z,14.40
2022-10-13T00:57:18.351Z,15.73
2022-10-13T00:59:44.849Z,14.93
2022-10-13T01:02:11.331Z,14.77
2022-10-13T01:04:40.269Z,15.00
2022-10-13T01:07:06.703Z,14.60
2022-10-13T01:09:37.747Z,15.60
2022-10-13T01:12:25.908Z,16.60
2022-10-13T01:15:02.698Z,14.43
2022-10-13T01:17:48.905Z,14.57
2022-10-13T01:20:32.787Z,15.47
2022-10-13T01:23:53.153Z,15.57
2022-10-13T01:26:41.365Z,15.70
2022-10-13T01:29:41.235Z,14.77
2022-10-13T01:32:13.917Z,15.43
2022-10-13T01:34:48.120Z,15.07
2022-10-13T01:37:22.292Z,14.83
2022-10-13T01:40:14.343Z,14.97
2022-10-13T01:42:50.113Z,15.93
2022-10-13T01:45:19.681Z,14.90
2022-10-13T01:47:47.029Z,15.40
2022-10-13T01:50:14.989Z,15.40
2022-10-13T01:52:42.704Z,14.83
2022-10-13T01:55:12.018Z,15.47
2022-10-13T01:57:44.535Z,14.27
2022-10-13T02:00:19.524Z,15.33
2022-10-13T02:03:20.813Z,16.37
2022-10-13T02:05:53.758Z,17.20
2022-10-13T02:11:32.650Z,16.47
2022-10-13T02:17:10.360Z,17.57
2022-10-13T02:19:38.241Z,16.50
2022-10-13T02:22:06.287Z,17.40
2022-10-13T02:24:33.092Z,16.07
2022-10-13T02:26:59.556Z,16.53
2022-10-13T02:29:26.147Z,15.93
2022-10-13T02:31:54.808Z,16.87
2022-10-13T02:34:21.336Z,17.10
2022-10-13T02:36:47.923Z,17.40
2022-10-13T02:39:14.523Z,16.83
2022-10-13T02:41:40.999Z,16.67
2022-10-13T02:44:07.505Z,16.00
2022-10-13T02:46:34.347Z,15.47
2022-10-13T02:49:00.937Z,15.90
2022-10-13T02:51:27.438Z,17.07
2022-10-13T02:53:54.014Z,16.27
2022-10-13T02:56:20.554Z,15.93
2022-10-13T02:58:46.988Z,16.63
2022-10-13T03:01:14.959Z,19.93
2022-10-13T03:03:41.552Z,16.57
2022-10-13T03:06:08.168Z,16.53
2022-10-13T03:08:35.321Z,16.87
2022-10-13T03:11:02.033Z,16.70
2022-10-13T03:13:28.505Z,16.90
2022-10-13T03:15:54.997Z,15.07
2022-10-13T03:18:21.496Z,16.70
2022-10-13T03:21:02.153Z,16.10
2022-10-13T03:23:28.921Z,17.47
2022-10-13T03:25:55.970Z,17.03
2022-10-13T03:28:22.787Z,17.03
2022-10-13T03:30:49.258Z,17.20
2022-10-13T03:33:15.940Z,18.90
2022-10-13T03:35:42.445Z,17.80
2022-10-13T03:38:08.874Z,17.63
2022-10-13T03:40:36.407Z,18.23
2022-10-13T03:43:02.853Z,18.07
2022-10-13T03:45:31.905Z,19.00
2022-10-13T03:47:58.757Z,16.67
2022-10-13T03:50:25.251Z,18.60
2022-10-13T03:52:51.739Z,18.00
2022-10-13T03:55:18.229Z,19.50
2022-10-13T03:57:44.789Z,18.50
2022-10-13T04:00:12.066Z,18.00
2022-10-13T04:02:38.507Z,17.20
2022-10-13T04:05:05.302Z,16.90
2022-10-13T04:07:32.278Z,17.97
2022-10-13T04:09:58.681Z,18.33
2022-10-13T04:12:25.536Z,17.50
2022-10-13T04:14:52.147Z,16.70
2022-10-13T04:17:18.670Z,18.67
2022-10-13T04:19:45.193Z,17.93
2022-10-13T04:22:11.669Z,18.23
2022-10-13T04:24:38.132Z,19.57
2022-10-13T04:27:04.600Z,18.63
2022-10-13T04:29:32.079Z,19.40
2022-10-13T04:32:01.362Z,19.00
2022-10-13T04:34:27.930Z,18.57
2022-10-13T04:36:54.347Z,35.13
2022-10-13T04:39:20.836Z,25.13
2022-10-13T04:41:47.386Z,19.67
2022-10-13T04:44:13.797Z,18.47
2022-10-13T04:46:40.253Z,18.57
2022-10-13T04:49:06.836Z,19.97
2022-10-13T04:51:33.340Z,17.67
2022-10-13T04:54:05.516Z,18.53
2022-10-13T04:56:32.503Z,18.90
2022-10-13T04:58:59.892Z,18.43
2022-10-13T05:01:26.922Z,20.03
2022-10-13T05:03:54.920Z,17.80
2022-10-13T05:06:27.058Z,19.43
2022-10-13T05:08:53.879Z,21.90
2022-10-13T05:11:20.778Z,21.23
2022-10-13T05:13:48.490Z,23.60
2022-10-13T05:16:17.184Z,23.37
2022-10-13T05:18:43.781Z,27.97
2022-10-13T05:21:12.617Z,27.00
2022-10-13T05:23:40.245Z,26.63
2022-10-13T05:26:11.466Z,25.90
2022-10-13T05:28:38.443Z,26.13
2022-10-13T05:31:11.679Z,24.73
2022-10-13T05:33:38.468Z,23.40
2022-10-13T05:36:11.493Z,22.40
2022-10-13T05:38:38.781Z,20.63
2022-10-13T05:41:13.194Z,20.17
2022-10-13T05:43:40.577Z,20.27
2022-10-13T05:46:08.115Z,19.43
2022-10-13T05:48:35.276Z,20.03
2022-10-13T05:51:04.738Z,19.67
2022-10-13T05:53:34.343Z,21.60
2022-10-13T05:56:06.271Z,18.40
2022-10-13T05:58:38.791Z,21.00
2022-10-13T06:01:10.818Z,19.37
2022-10-13T06:03:38.190Z,17.70
2022-10-13T06:06:04.921Z,18.37
2022-10-13T06:08:32.083Z,16.90
2022-10-13T06:10:58.583Z,18.07
2022-10-13T06:13:25.034Z,17.70
2022-10-13T06:15:51.798Z,16.87
2022-10-13T06:18:18.267Z,16.53
2022-10-13T06:20:44.793Z,14.97
2022-10-13T06:23:11.461Z,17.17
2022-10-13T06:25:38.202Z,14.43
2022-10-13T06:28:04.773Z,15.80
2022-10-13T06:30:32.292Z,13.43
2022-10-13T06:32:58.820Z,13.17
2022-10-13T06:35:25.472Z,14.87
2022-10-13T06:37:53.367Z,13.83
2022-10-13T06:40:19.918Z,13.77
2022-10-13T06:42:50.172Z,13.53
2022-10-13T06:45:17.639Z,13.20
2022-10-13T06:47:44.111Z,14.60
2022-10-13T06:50:10.919Z,23.20
2022-10-13T06:52:37.776Z,14.30
2022-10-13T06:55:05.296Z,12.93
2022-10-13T06:57:32.628Z,12.67
2022-10-13T06:59:59.529Z,12.83
2022-10-13T07:02:26.084Z,12.20
2022-10-13T07:04:52.587Z,11.77
2022-10-13T07:07:19.590Z,11.47
2022-10-13T07:09:46.246Z,11.63
2022-10-13T07:12:14.158Z,10.10
2022-10-13T07:14:43.714Z,10.60
2022-10-13T07:17:10.841Z,11.47
2022-10-13T07:19:37.350Z,10.00
2022-10-13T07:22:04.160Z,10.77
2022-10-13T07:24:33.004Z,10.50
2022-10-13T07:27:03.909Z,10.17
2022-10-13T07:29:36.731Z,9.80
2022-10-13T07:32:03.549Z,9.00
2022-10-13T07:34:30.000Z,9.90
2022-10-13T07:36:57.128Z,9.17
2022-10-13T07:39:23.853Z,9.90
2022-10-13T07:41:51.498Z,11.03
2022-10-13T07:44:18.861Z,14.33
2022-10-13T07:46:53.434Z,14.13
2022-10-13T07:49:20.716Z,8.93
2022-10-13T07:51:50.559Z,8.83
2022-10-13T07:54:21.578Z,9.23
2022-10-13T07:56:57.091Z,9.53
2022-10-13T07:59:26.502Z,9.83
2022-10-13T08:01:53.503Z,10.00
2022-10-13T08:04:20.291Z,9.85
2022-10-13T08:06:50.224Z,12.27
2022-10-13T08:09:16.798Z,10.83
2022-10-13T08:11:43.345Z,9.50
2022-10-13T08:14:11.900Z,8.87
2022-10-13T08:16:40.086Z,8.95
2022-10-13T08:19:06.738Z,9.07
2022-10-13T08:21:57.598Z,9.20
2022-10-13T08:24:22.248Z,9.00
2022-10-13T08:26:53.396Z,9.43
2022-10-13T08:29:22.593Z,8.87
2022-10-13T08:31:51.681Z,8.93
2022-10-13T08:34:18.750Z,9.17
2022-10-13T08:36:47.782Z,7.43
2022-10-13T08:39:14.652Z,8.23
2022-10-13T08:41:46.594Z,7.70
2022-10-13T08:44:59.174Z,8.50
2022-10-13T08:47:27.200Z,8.47
2022-10-13T08:50:00.297Z,8.00
2022-10-13T08:52:29.693Z,7.63
2022-10-13T08:54:57.275Z,7.80
2022-10-13T08:57:24.053Z,7.43
2022-10-13T08:59:52.795Z,7.77
2022-10-13T09:02:27.233Z,7.43
2022-10-13T09:04:54.097Z,7.83
2022-10-13T09:07:24.900Z,7.90
2022-10-13T09:09:52.893Z,6.97
2022-10-13T09:12:24.477Z,7.50
2022-10-13T09:15:11.954Z,7.77
2022-10-13T09:17:41.055Z,7.10
2022-10-13T09:20:23.133Z,6.43
2022-10-13T09:23:01.447Z,6.60
2022-10-13T09:25:28.156Z,5.80
2022-10-13T09:27:58.060Z,6.87
2022-10-13T09:30:25.618Z,6.73
2022-10-13T09:33:06.418Z,6.60
2022-10-13T09:35:35.013Z,6.93
2022-10-13T09:38:05.609Z,6.03
2022-10-13T09:40:32.871Z,6.60
2022-10-13T09:43:01.414Z,5.97
2022-10-13T09:45:30.670Z,5.97
2022-10-13T09:48:04.585Z,6.80
2022-10-13T09:50:35.494Z,7.40
2022-10-13T09:53:25.714Z,7.00
2022-10-13T09:56:29.745Z,6.67
2022-10-13T09:59:18.194Z,6.80
2022-10-13T10:01:46.567Z,5.87
2022-10-13T10:04:18.070Z,5.70
2022-10-13T10:06:48.855Z,6.40
2022-10-13T10:09:37.242Z,5.07
2022-10-13T10:12:04.950Z,4.70
2022-10-13T10:14:37.053Z,5.23
2022-10-13T10:17:41.607Z,4.73
2022-10-13T10:20:26.548Z,4.80
2022-10-13T10:23:01.317Z,4.77
2022-10-13T10:25:52.496Z,6.03
2022-10-13T10:28:27.681Z,3.90
2022-10-13T10:31:02.965Z,4.27
2022-10-13T10:33:56.422Z,4.23
2022-10-13T10:36:28.639Z,3.47
2022-10-13T10:39:03.833Z,4.30
2022-10-13T10:41:45.583Z,3.63
2022-10-13T10:44:22.517Z,3.57
2022-10-13T10:46:49.966Z,3.50
2022-10-13T10:49:26.900Z,3.40
2022-10-13T10:51:54.073Z,3.00
2022-10-13T10:54:20.524Z,3.20
2022-10-13T10:57:00.549Z,2.87
2022-10-13T10:59:49.901Z,2.93
2022-10-13T11:02:35.505Z,2.90
2022-10-13T11:05:05.423Z,2.90
2022-10-13T11:07:33.413Z,2.27
2022-10-13T11:09:59.828Z,2.43
2022-10-13T11:12:45.033Z,2.37
2022-10-13T11:15:13.478Z,2.57
2022-10-13T11:17:41.252Z,2.43
2022-10-13T11:20:22.381Z,2.23
2022-10-13T11:22:57.723Z,3.17
2022-10-13T11:25:42.446Z,3.50
2022-10-13T11:28:21.287Z,3.00
2022-10-13T11:30:55.585Z,2.53
2022-10-13T11:33:34.862Z,2.97
2022-10-13T11:36:28.956Z,2.77
2022-10-13T11:39:20.543Z,2.87
2022-10-13T11:42:05.973Z,2.97
2022-10-13T11:44:45.782Z,3.20
2022-10-13T11:47:27.714Z,3.40
2022-10-13T11:50:08.204Z,3.20
2022-10-13T11:52:37.961Z,2.70
2022-10-13T11:58:16.481Z,2.93
2022-10-13T12:00:56.062Z,3.77
2022-10-13T12:03:40.521Z,2.83
2022-10-13T12:06:23.008Z,2.90
2022-10-13T12:08:51.953Z,3.17
2022-10-13T12:11:38.381Z,3.80
2022-10-13T12:14:07.768Z,3.17
2022-10-13T12:16:34.764Z,3.17
2022-10-13T12:19:10.146Z,3.20
2022-10-13T12:21:49.474Z,3.60
2022-10-13T12:24:16.524Z,3.00
2022-10-13T12:26:43.564Z,3.23
2022-10-13T12:29:14.729Z,3.30
2022-10-13T12:31:44.931Z,3.40
2022-10-13T12:34:21.855Z,3.30
2022-10-13T12:37:28.035Z,3.13
2022-10-13T12:39:56.941Z,2.60
2022-10-13T12:42:29.848Z,2.87
2022-10-13T12:44:57.831Z,3.57
2022-10-13T12:47:50.240Z,3.13
2022-10-13T12:50:26.132Z,3.17
2022-10-13T12:53:03.878Z,3.53
2022-10-13T12:55:33.162Z,3.20
2022-10-13T12:58:01.586Z,3.03
2022-10-13T13:00:29.998Z,3.10
2022-10-13T13:03:05.645Z,3.77
2022-10-13T13:05:50.758Z,3.13
2022-10-13T13:08:29.869Z,3.07
2022-10-13T13:11:01.510Z,3.60
2022-10-13T13:13:28.924Z,3.33
2022-10-13T13:16:13.991Z,3.43
2022-10-13T13:18:42.723Z,3.93
2022-10-13T13:21:12.021Z,3.50
2022-10-13T13:23:39.355Z,3.73
2022-10-13T13:26:14.255Z,4.27
2022-10-13T13:28:48.084Z,3.80
2022-10-13T13:31:19.643Z,3.90
2022-10-13T13:33:46.765Z,3.57
2022-10-13T13:36:24.222Z,4.10
2022-10-13T13:38:51.670Z,4.07
2022-10-13T13:41:18.531Z,4.90
2022-10-13T13:43:47.849Z,4.00
2022-10-13T13:46:21.139Z,3.93
2022-10-13T13:48:48.129Z,4.07
2022-10-13T13:51:15.565Z,4.33
2022-10-13T13:53:42.165Z,3.63
2022-10-13T13:56:17.324Z,4.33
2022-10-13T13:58:44.628Z,3.87
2022-10-13T14:01:11.726Z,3.50
2022-10-13T14:03:38.426Z,3.57
2022-10-13T14:06:05.519Z,3.63
2022-10-13T14:08:33.579Z,4.57
2022-10-13T14:11:00.252Z,3.60
2022-10-13T14:13:26.933Z,3.27
2022-10-13T14:15:57.771Z,3.53
2022-10-13T14:18:24.837Z,3.60
2022-10-13T14:20:51.430Z,4.43
2022-10-13T14:23:18.187Z,3.70
2022-10-13T14:25:44.880Z,3.77
2022-10-13T14:28:14.571Z,3.97
2022-10-13T14:30:44.429Z,4.13
2022-10-13T14:33:11.020Z,3.80
2022-10-13T14:35:37.503Z,4.13
2022-10-13T14:38:04.165Z,3.50
2022-10-13T14:40:31.158Z,3.80
2022-10-13T14:42:57.696Z,3.90
2022-10-13T14:45:24.263Z,4.00
2022-10-13T14:47:52.609Z,3.73
2022-10-13T14:50:19.113Z,3.47
2022-10-13T14:52:45.610Z,4.10
2022-10-13T14:55:12.451Z,3.70
2022-10-13T14:57:39.011Z,4.03
2022-10-13T15:00:05.855Z,4.10
2022-10-13T15:02:32.484Z,4.00
2022-10-13T15:04:58.963Z,4.23
2022-10-13T15:07:25.663Z,4.23
2022-10-13T15:10:04.318Z,4.50
2022-10-13T15:12:32.251Z,4.40
2022-10-13T15:14:58.985Z,4.90
2022-10-13T15:17:25.416Z,4.47
2022-10-13T15:19:52.131Z,4.20
2022-10-13T15:22:19.382Z,4.80
2022-10-13T15:24:46.533Z,4.17
2022-10-13T15:27:13.041Z,4.07
2022-10-13T15:29:39.577Z,4.30
2022-10-13T15:32:13.613Z,4.27
2022-10-13T15:34:40.140Z,4.40
2022-10-13T15:37:07.367Z,4.70
2022-10-13T15:39:34.155Z,4.87
2022-10-13T15:42:00.929Z,4.70
2022-10-13T15:44:28.062Z,4.43
2022-10-13T15:47:07.360Z,4.10
2022-10-13T15:49:39.393Z,3.20
2022-10-13T15:52:06.054Z,3.63
2022-10-13T15:54:33.545Z,3.70
2022-10-13T15:57:00.299Z,4.27
2022-10-13T15:59:26.832Z,4.17
2022-10-13T16:01:53.611Z,3.50
2022-10-13T16:04:20.331Z,5.87
2022-10-13T16:06:46.813Z,4.93
2022-10-13T16:09:13.497Z,4.57
2022-10-13T16:11:40.224Z,4.53
2022-10-13T16:14:06.704Z,3.93
2022-10-13T16:16:35.256Z,4.60
2022-10-13T16:19:02.098Z,4.60
2022-10-13T16:21:28.667Z,4.20
2022-10-13T16:23:55.509Z,4.13
2022-10-13T16:26:22.590Z,4.70
2022-10-13T16:28:49.310Z,5.07
2022-10-13T16:31:16.791Z,4.37
2022-10-13T16:33:45.065Z,4.47
2022-10-13T16:36:17.196Z,5.20
2022-10-13T16:38:45.038Z,4.90
2022-10-13T16:41:14.740Z,4.60
2022-10-13T16:43:42.197Z,5.37
2022-10-13T16:46:12.799Z,4.40
2022-10-13T16:48:43.219Z,5.00
2022-10-13T16:51:13.417Z,4.53
2022-10-13T16:53:40.465Z,5.27
2022-10-13T16:56:07.828Z,4.53
2022-10-13T16:58:34.736Z,5.20
2022-10-13T17:01:10.983Z,5.20
2022-10-13T17:03:38.873Z,5.10
2022-10-13T17:06:06.169Z,5.67
2022-10-13T17:08:33.085Z,4.90
2022-10-13T17:11:00.068Z,4.90
2022-10-13T17:13:26.937Z,4.43
2022-10-13T17:15:55.460Z,4.80
2022-10-13T17:18:22.286Z,4.67
2022-10-13T17:21:02.361Z,5.13
2022-10-13T17:23:29.323Z,5.40
2022-10-13T17:25:56.365Z,5.57
2022-10-13T17:28:23.243Z,4.87
2022-10-13T17:31:04.233Z,4.80
2022-10-13T17:33:34.804Z,6.47
2022-10-13T17:36:04.354Z,5.97
2022-10-13T17:38:34.062Z,5.30
2022-10-13T17:41:01.794Z,5.30
2022-10-13T17:43:29.123Z,5.53
2022-10-13T17:46:07.476Z,5.33
2022-10-13T17:48:42.850Z,5.37
2022-10-13T17:51:12.064Z,5.93
2022-10-13T17:53:39.709Z,5.70
2022-10-13T17:56:09.460Z,6.07
2022-10-13T17:58:37.513Z,5.63
2022-10-13T18:01:14.166Z,6.80
2022-10-13T18:03:54.850Z,6.27
2022-10-13T18:06:22.744Z,6.10
2022-10-13T18:08:52.673Z,6.63
2022-10-13T18:11:21.573Z,6.37
2022-10-13T18:13:49.015Z,6.47
2022-10-13T18:16:18.477Z,7.70
2022-10-13T18:18:45.900Z,6.40
2022-10-13T18:21:15.618Z,6.70
2022-10-13T18:23:43.574Z,6.90
2022-10-13T18:26:15.810Z,8.20
2022-10-13T18:28:44.305Z,7.33
2022-10-13T18:31:22.139Z,7.00
2022-10-13T18:33:48.799Z,7.33
2022-10-13T18:36:20.634Z,7.43
2022-10-13T18:38:47.797Z,7.80
2022-10-13T18:41:15.318Z,7.00
2022-10-13T18:43:41.856Z,7.33
2022-10-13T18:46:09.764Z,8.53
2022-10-13T18:48:36.693Z,7.77
2022-10-13T18:51:08.367Z,6.97
2022-10-13T18:53:36.053Z,7.83
2022-10-13T18:56:07.871Z,7.53
2022-10-13T18:58:35.434Z,7.23
2022-10-13T19:01:03.374Z,7.40
2022-10-13T19:03:35.760Z,7.50
2022-10-13T19:06:04.332Z,7.73
2022-10-13T19:08:32.526Z,7.90
2022-10-13T19:10:59.754Z,7.43
2022-10-13T19:13:27.820Z,7.60
2022-10-13T19:16:01.341Z,7.67
2022-10-13T19:18:28.115Z,6.97
2022-10-13T19:20:54.660Z,7.37
2022-10-13T19:23:22.200Z,7.10
2022-10-13T19:25:48.889Z,7.87
2022-10-13T19:28:15.417Z,8.13
2022-10-13T19:30:42.361Z,8.40
2022-10-13T19:33:10.467Z,7.90
2022-10-13T19:35:48.296Z,8.43
2022-10-13T19:38:15.709Z,8.67
2022-10-13T19:40:49.715Z,8.27
2022-10-13T19:43:19.322Z,8.97
2022-10-13T19:45:47.265Z,9.33
2022-10-13T19:48:13.979Z,9.33
2022-10-13T19:50:41.705Z,9.17
2022-10-13T19:53:09.621Z,9.07
2022-10-13T19:55:44.621Z,8.97
2022-10-13T19:58:11.129Z,8.70
2022-10-13T20:00:37.681Z,8.40
2022-10-13T20:03:05.120Z,9.27
2022-10-13T20:05:32.343Z,9.40
2022-10-13T20:07:58.783Z,8.30
2022-10-13T20:10:25.577Z,9.70
2022-10-13T20:12:52.249Z,9.83
2022-10-13T20:15:18.672Z,9.63
2022-10-13T20:17:45.099Z,9.70
2022-10-13T20:20:11.689Z,10.57
2022-10-13T20:22:39.794Z,10.67
2022-10-13T20:25:09.121Z,10.37
2022-10-13T20:27:36.086Z,10.13
2022-10-13T20:30:02.533Z,10.13
2022-10-13T20:32:29.042Z,10.97
2022-10-13T20:34:55.543Z,11.07
2022-10-13T20:37:22.339Z,11.43
2022-10-13T20:39:49.274Z,11.10
2022-10-13T20:42:15.753Z,11.73
2022-10-13T20:44:42.305Z,10.13
2022-10-13T20:47:08.753Z,13.40
2022-10-13T20:49:35.251Z,11.83
2022-10-13T20:52:01.656Z,11.70
2022-10-13T20:54:28.108Z,12.30
2022-10-13T20:56:54.639Z,12.20
2022-10-13T20:59:21.077Z,11.53
2022-10-13T21:01:47.499Z,11.90
2022-10-13T21:04:14.176Z,12.30
2022-10-13T21:06:41.320Z,12.23
2022-10-13T21:09:07.968Z,13.17
2022-10-13T21:11:35.257Z,12.20
2022-10-13T21:14:06.407Z,12.23
2022-10-13T21:16:33.638Z,13.47
2022-10-13T21:19:00.265Z,12.50
2022-10-13T21:21:32.432Z,12.63
2022-10-13T21:24:01.074Z,12.70
2022-10-13T21:26:29.322Z,13.13
2022-10-13T21:28:56.048Z,13.00
2022-10-13T21:31:23.898Z,12.40
2022-10-13T21:33:50.521Z,12.53
2022-10-13T21:36:18.137Z,12.83
2022-10-13T21:38:46.252Z,14.60
2022-10-13T21:41:13.946Z,14.00
2022-10-13T21:43:40.800Z,14.33
2022-10-13T21:46:14.080Z,13.20
2022-10-13T21:48:40.685Z,12.70
2022-10-13T21:51:23.556Z,12.73
2022-10-13T21:53:54.661Z,13.27
2022-10-13T21:56:21.733Z,13.20
2022-10-13T21:58:49.077Z,12.57
2022-10-13T22:01:19.397Z,14.03
2022-10-13T22:03:47.186Z,14.57
2022-10-13T22:06:19.202Z,13.73
2022-10-13T22:08:47.588Z,13.00
2022-10-13T22:11:14.915Z,13.77
2022-10-13T22:13:41.390Z,14.87
2022-10-13T22:16:19.644Z,14.30
2022-10-13T22:18:46.431Z,14.10
2022-10-13T22:21:16.722Z,13.47
2022-10-13T22:23:43.459Z,13.53
2022-10-13T22:26:10.531Z,13.80
2022-10-13T22:28:37.763Z,14.73
2022-10-13T22:31:13.373Z,15.90
2022-10-13T22:33:41.363Z,16.80
2022-10-13T22:36:15.672Z,16.20
2022-10-13T22:38:42.986Z,16.33
2022-10-13T22:41:09.932Z,15.13
2022-10-13T22:43:36.578Z,15.53
2022-10-13T22:46:03.845Z,15.57
2022-10-13T22:48:30.613Z,14.80
2022-10-13T22:50:57.407Z,14.00
2022-10-13T22:53:23.918Z,14.70
2022-10-13T22:55:50.419Z,15.50
2022-10-13T22:58:17.065Z,16.07
2022-10-13T23:00:43.525Z,15.57
2022-10-13T23:03:15.028Z,15.33
2022-10-13T23:05:43.326Z,14.30
2022-10-13T23:08:11.085Z,14.37
2022-10-13T23:10:37.618Z,14.60
2022-10-13T23:13:05.120Z,15.50
2022-10-13T23:15:32.415Z,15.23
2022-10-13T23:17:58.853Z,15.57
2022-10-13T23:20:25.507Z,15.80
2022-10-13T23:22:51.943Z,15.83
2022-10-13T23:25:18.389Z,15.20
2022-10-13T23:27:44.891Z,14.87
2022-10-13T23:30:12.074Z,16.33
2022-10-13T23:32:38.476Z,15.87
2022-10-13T23:35:05.290Z,15.87
2022-10-13T23:37:32.349Z,16.10
2022-10-13T23:39:58.835Z,16.23
2022-10-13T23:42:25.407Z,16.00
2022-10-13T23:44:51.843Z,16.43
2022-10-13T23:47:18.493Z,15.93
2022-10-13T23:49:45.200Z,15.60
2022-10-13T23:52:11.701Z,15.80
2022-10-13T23:54:38.196Z,15.50
2022-10-13T23:57:04.625Z,15.17
2022-10-13T23:59:34.208Z,16.60
